Terminal Aerodrome Forecast
Issued by NWS

Home | Current Version | Previous Version | Text Only | Print | Product List | Glossary On
Versions: 1 2 3 4 5 6 7 8 9 10 11 12 13 14 15 16 17 18
672
FTUS41 KGYX 271720
TAFRKD
TAF
KRKD 271720Z 2718/2818 20006KT P6SM FEW050
     FM280500 25002KT 1/2SM FG BKN001
     FM281200 23003KT 5SM HZ FEW050
     FM281500 21004KT P6SM SCT050
      AMD LTD TO CLD VIS AND WIND=

USA.gov is the U.S. government's official web portal to all federal, state and local government web resources and services.